createdAt,value
2022-09-06T00:00:56.076Z,14.1
2022-09-06T00:02:06.543Z,14.2
2022-09-06T00:03:16.293Z,14.2
2022-09-06T00:04:26.413Z,14.1
2022-09-06T00:05:36.540Z,14.1
2022-09-06T00:06:46.662Z,14
2022-09-06T00:07:56.773Z,14
2022-09-06T00:09:05.908Z,14.1
2022-09-06T00:10:16.015Z,14.1
2022-09-06T00:11:26.142Z,14.1
2022-09-06T00:12:36.269Z,14.1
2022-09-06T00:13:46.373Z,14.1
2022-09-06T00:14:56.501Z,14
2022-09-06T00:16:06.603Z,13.9
2022-09-06T00:17:16.736Z,13.9
2022-09-06T00:18:26.855Z,13.9
2022-09-06T00:19:36.959Z,13.9
2022-09-06T00:20:47.079Z,13.9
2022-09-06T00:21:57.202Z,13.9
2022-09-06T00:23:07.311Z,13.9
2022-09-06T00:24:16.451Z,13.9
2022-09-06T00:25:26.576Z,13.9
2022-09-06T00:26:36.684Z,13.9
2022-09-06T00:27:46.804Z,13.9
2022-09-06T00:28:56.920Z,13.9
2022-09-06T00:30:07.036Z,13.9
2022-09-06T00:31:17.156Z,13.9
2022-09-06T00:32:27.274Z,13.9
2022-09-06T00:33:37.393Z,13.9
2022-09-06T00:34:47.513Z,13.9
2022-09-06T00:35:57.622Z,13.9
2022-09-06T00:37:07.746Z,13.9
2022-09-06T00:39:27.979Z,13.8
2022-09-06T00:40:37.399Z,13.8
2022-09-06T00:41:47.241Z,13.7
2022-09-06T00:42:57.350Z,13.7
2022-09-06T00:44:07.726Z,13.6
2022-09-06T00:45:17.589Z,13.6
2022-09-06T00:46:27.711Z,13.5
2022-09-06T00:47:37.824Z,13.5
2022-09-06T00:48:47.932Z,13.5
2022-09-06T00:49:58.054Z,13.5
2022-09-06T00:51:08.181Z,13.5
2022-09-06T00:52:18.288Z,13.4
2022-09-06T00:53:28.414Z,13.4
2022-09-06T00:54:38.516Z,13.5
2022-09-06T00:55:47.651Z,13.4
2022-09-06T00:56:57.778Z,13.5
2022-09-06T00:58:07.889Z,13.5
2022-09-06T00:59:18.018Z,13.5
2022-09-06T01:00:28.121Z,13.5
2022-09-06T01:01:38.245Z,13.4
2022-09-06T01:02:48.623Z,13.4
2022-09-06T01:03:58.472Z,13.4
2022-09-06T01:05:08.602Z,13.3
2022-09-06T01:06:18.709Z,13.3
2022-09-06T01:07:28.835Z,13.3
2022-09-06T01:08:38.958Z,13.3
2022-09-06T01:09:49.326Z,13.3
2022-09-06T01:10:58.196Z,13.3
2022-09-06T01:12:08.317Z,13.3
2022-09-06T01:14:28.561Z,13.3
2022-09-06T01:15:38.667Z,13.3
2022-09-06T01:16:48.790Z,13.2
2022-09-06T01:17:58.908Z,13.2
2022-09-06T01:19:09.024Z,13.2
2022-09-06T01:20:19.133Z,13.2
2022-09-06T01:21:29.253Z,13.2
2022-09-06T01:22:39.385Z,13.2
2022-09-06T01:23:49.488Z,13.2
2022-09-06T01:24:59.606Z,13.2
2022-09-06T01:26:08.740Z,13.2
2022-09-06T01:27:18.873Z,13.2
2022-09-06T01:28:28.983Z,13.2
2022-09-06T01:29:39.370Z,13.1
2022-09-06T01:30:49.484Z,13.1
2022-09-06T01:31:59.597Z,13.1
2022-09-06T01:33:09.457Z,13
2022-09-06T01:35:29.686Z,13
2022-09-06T01:36:39.791Z,13
2022-09-06T01:37:49.924Z,13
2022-09-06T01:39:00.037Z,13
2022-09-06T01:40:10.422Z,12.9
2022-09-06T01:41:19.281Z,12.9
2022-09-06T01:42:29.405Z,12.9
2022-09-06T01:43:39.783Z,12.9
2022-09-06T01:44:49.627Z,12.9
2022-09-06T01:45:59.748Z,12.9
2022-09-06T01:48:19.984Z,12.8
2022-09-06T01:49:30.113Z,12.9
2022-09-06T01:50:40.216Z,12.8
2022-09-06T01:51:50.333Z,12.8
2022-09-06T01:53:00.452Z,12.8
2022-09-06T01:54:10.575Z,12.8
2022-09-06T01:55:20.698Z,12.8
2022-09-06T01:56:29.819Z,12.8
2022-09-06T01:57:38.968Z,12.7
2022-09-06T01:58:49.084Z,12.6
2022-09-06T01:59:59.210Z,12.6
2022-09-06T02:01:09.312Z,12.7
2022-09-06T02:03:29.548Z,12.6
2022-09-06T02:04:39.676Z,12.6
2022-09-06T02:05:49.781Z,12.5
2022-09-06T02:07:00.172Z,12.5
2022-09-06T02:08:10.026Z,12.5
2022-09-06T02:10:30.269Z,12.4
2022-09-06T02:11:39.401Z,12.4
2022-09-06T02:12:48.534Z,12.4
2022-09-06T02:13:58.660Z,12.4
2022-09-06T02:15:08.784Z,12.4
2022-09-06T02:17:29.274Z,12.5
2022-09-06T02:18:39.124Z,12.5
2022-09-06T02:19:49.505Z,12.5
2022-09-06T02:22:09.482Z,12.4
2022-09-06T02:23:19.589Z,12.4
2022-09-06T02:24:29.719Z,12.4
2022-09-06T02:25:39.830Z,12.4
2022-09-06T02:26:48.982Z,12.4
2022-09-06T02:27:58.102Z,12.4
2022-09-06T02:29:08.487Z,12.3
2022-09-06T02:30:18.336Z,12.3
2022-09-06T02:31:28.459Z,12.4
2022-09-06T02:32:38.584Z,12.3
2022-09-06T02:33:48.699Z,12.3
2022-09-06T02:34:58.816Z,12.4
2022-09-06T02:36:08.923Z,12.4
2022-09-06T02:38:29.164Z,12.4
2022-09-06T02:39:39.289Z,12.4
2022-09-06T02:40:49.666Z,12.4
2022-09-06T02:41:59.516Z,12.4
2022-09-06T02:43:08.647Z,12.4
2022-09-06T02:44:18.772Z,12.4
2022-09-06T02:45:28.898Z,12.4
2022-09-06T02:46:39.003Z,12.4
2022-09-06T02:47:49.132Z,12.3
2022-09-06T02:48:59.241Z,12.3
2022-09-06T02:50:09.369Z,12.3
2022-09-06T02:52:29.591Z,12.3
2022-09-06T02:53:39.719Z,12.3
2022-09-06T02:54:49.827Z,12.3
2022-09-06T02:55:59.948Z,12.3
2022-09-06T02:57:10.076Z,12.3
2022-09-06T02:58:19.192Z,12.3
2022-09-06T02:59:29.315Z,12.3
2022-09-06T03:00:39.445Z,12.3
2022-09-06T03:01:49.552Z,12.3
2022-09-06T03:02:58.696Z,12.3
2022-09-06T03:04:07.831Z,12.2
2022-09-06T03:06:28.326Z,12.2
2022-09-06T03:07:38.185Z,12.2
2022-09-06T03:08:48.306Z,12.2
2022-09-06T03:09:58.411Z,12.2
2022-09-06T03:11:08.537Z,12.2
2022-09-06T03:12:18.657Z,12.2
2022-09-06T03:13:28.764Z,12.2
2022-09-06T03:14:38.893Z,12.2
2022-09-06T03:15:49.007Z,12.2
2022-09-06T03:16:59.134Z,12.1
2022-09-06T03:18:09.235Z,12.1
2022-09-06T03:19:18.368Z,12.1
2022-09-06T03:20:28.485Z,12.1
2022-09-06T03:21:38.614Z,12.1
2022-09-06T03:22:48.720Z,12.1
2022-09-06T03:23:58.848Z,12.1
2022-09-06T03:25:08.956Z,12.1
2022-09-06T03:26:19.085Z,12
2022-09-06T03:27:29.194Z,12
2022-09-06T03:28:38.605Z,12
2022-09-06T03:29:47.735Z,12
2022-09-06T03:30:57.587Z,11.9
2022-09-06T03:32:07.707Z,12
2022-09-06T03:33:17.835Z,12
2022-09-06T03:34:28.207Z,12
2022-09-06T03:35:38.061Z,12
2022-09-06T03:36:48.172Z,12
2022-09-06T03:37:58.303Z,12
2022-09-06T03:39:08.423Z,12
2022-09-06T03:41:28.645Z,12
2022-09-06T03:42:38.773Z,12
2022-09-06T03:43:48.881Z,12
2022-09-06T03:44:58.022Z,12
2022-09-06T03:46:08.145Z,12
2022-09-06T03:47:18.266Z,12
2022-09-06T03:48:28.369Z,11.9
2022-09-06T03:49:38.499Z,11.9
2022-09-06T03:50:48.602Z,11.9
2022-09-06T03:51:58.985Z,11.9
2022-09-06T03:53:08.834Z,11.9
2022-09-06T03:54:18.956Z,12
2022-09-06T03:55:29.074Z,12
2022-09-06T03:56:39.204Z,12
2022-09-06T03:57:49.571Z,12
2022-09-06T03:58:59.425Z,12.1
2022-09-06T04:00:08.562Z,12
2022-09-06T04:01:18.471Z,12
2022-09-06T04:02:28.794Z,12
2022-09-06T04:03:38.924Z,12
2022-09-06T04:04:49.028Z,12
2022-09-06T04:05:59.148Z,11.9
2022-09-06T04:07:09.270Z,11.9
2022-09-06T04:08:19.384Z,11.9
2022-09-06T04:09:29.763Z,11.9
2022-09-06T04:10:39.633Z,11.9
2022-09-06T04:11:49.750Z,11.9
2022-09-06T04:12:59.859Z,11.9
2022-09-06T04:14:09.986Z,11.9
2022-09-06T04:15:19.107Z,11.9
2022-09-06T04:16:29.485Z,11.9
2022-09-06T04:17:39.351Z,12
2022-09-06T04:18:49.460Z,12
2022-09-06T04:19:59.581Z,12
2022-09-06T04:21:09.708Z,12
2022-09-06T04:22:19.809Z,11.9
2022-09-06T04:23:29.932Z,12
2022-09-06T04:24:40.311Z,12
2022-09-06T04:25:50.170Z,12
2022-09-06T04:27:00.293Z,12
2022-09-06T04:28:10.396Z,12
2022-09-06T04:29:20.525Z,12
2022-09-06T04:30:29.659Z,12
2022-09-06T04:31:39.783Z,11.9
2022-09-06T04:32:49.891Z,11.9
2022-09-06T04:34:00.014Z,11.9
2022-09-06T04:35:10.120Z,11.9
2022-09-06T04:36:20.244Z,11.9
2022-09-06T04:37:30.354Z,11.9
2022-09-06T04:38:40.476Z,11.9
2022-09-06T04:39:50.601Z,11.9
2022-09-06T04:41:00.712Z,11.9
2022-09-06T04:42:10.834Z,11.9
2022-09-06T04:44:31.326Z,11.9
2022-09-06T04:45:40.191Z,11.9
2022-09-06T04:46:50.315Z,11.9
2022-09-06T04:48:00.432Z,11.9
2022-09-06T04:49:10.552Z,11.8
2022-09-06T04:50:20.671Z,11.9
2022-09-06T04:51:30.797Z,12
2022-09-06T04:52:40.903Z,12
2022-09-06T04:53:51.026Z,12
2022-09-06T04:55:01.147Z,12
2022-09-06T04:56:11.258Z,12
2022-09-06T04:58:31.486Z,12
2022-09-06T04:59:41.611Z,12
2022-09-06T05:00:50.747Z,12
2022-09-06T05:02:00.871Z,12
2022-09-06T05:03:10.973Z,12
2022-09-06T05:04:21.096Z,12.1
2022-09-06T05:05:31.479Z,12.1
2022-09-06T05:06:41.331Z,12.1
2022-09-06T05:07:51.456Z,12.2
2022-09-06T05:09:01.560Z,12.2
2022-09-06T05:10:11.682Z,12.1
2022-09-06T05:11:21.803Z,12.1
2022-09-06T05:12:31.926Z,12.2
2022-09-06T05:13:42.033Z,12.2
2022-09-06T05:14:52.158Z,12.3
2022-09-06T05:16:01.286Z,12.3
2022-09-06T05:17:11.418Z,12.4
2022-09-06T05:18:21.518Z,12.4
2022-09-06T05:19:31.646Z,12.4
2022-09-06T05:20:42.021Z,12.5
2022-09-06T05:21:51.880Z,12.5
2022-09-06T05:23:01.996Z,12.5
2022-09-06T05:24:12.369Z,12.5
2022-09-06T05:25:22.234Z,12.5
2022-09-06T05:26:32.341Z,12.5
2022-09-06T05:27:42.722Z,12.5
2022-09-06T05:28:52.582Z,12.5
2022-09-06T05:30:02.711Z,12.4
2022-09-06T05:31:11.840Z,12.4
2022-09-06T05:32:21.949Z,12.4
2022-09-06T05:33:32.074Z,12.5
2022-09-06T05:34:42.184Z,12.5
2022-09-06T05:35:52.313Z,12.5
2022-09-06T05:37:02.430Z,12.6
2022-09-06T05:38:12.541Z,12.6
2022-09-06T05:39:22.664Z,12.6
2022-09-06T05:40:32.771Z,12.7
2022-09-06T05:41:42.901Z,12.7
2022-09-06T05:42:53.005Z,12.7
2022-09-06T05:44:03.131Z,12.8
2022-09-06T05:45:13.242Z,12.8
2022-09-06T05:46:22.376Z,12.9
2022-09-06T05:47:32.502Z,12.9
2022-09-06T05:48:42.613Z,12.9
2022-09-06T05:49:52.988Z,13
2022-09-06T05:51:02.845Z,13
2022-09-06T05:52:11.997Z,13
2022-09-06T05:53:22.101Z,13
2022-09-06T05:54:32.228Z,13
2022-09-06T05:55:42.341Z,13
2022-09-06T05:56:52.725Z,13
2022-09-06T05:58:02.568Z,13.1
2022-09-06T05:59:12.700Z,13
2022-09-06T06:00:22.820Z,13.1
2022-09-06T06:01:32.926Z,13.1
2022-09-06T06:02:43.039Z,13.1
2022-09-06T06:03:53.159Z,13.1
2022-09-06T06:05:03.281Z,13.2
2022-09-06T06:06:13.401Z,13.2
2022-09-06T06:07:22.530Z,13.2
2022-09-06T06:08:32.653Z,13.2
2022-09-06T06:09:43.029Z,13.2
2022-09-06T06:10:52.883Z,13.2
2022-09-06T06:12:03.010Z,13.2
2022-09-06T06:13:13.131Z,13.3
2022-09-06T06:14:23.238Z,13.3
2022-09-06T06:15:33.359Z,13.3
2022-09-06T06:16:43.470Z,13.3
2022-09-06T06:17:53.854Z,13.4
2022-09-06T06:19:03.714Z,13.4
2022-09-06T06:20:13.835Z,13.4
2022-09-06T06:21:23.940Z,13.4
2022-09-06T06:22:33.070Z,13.4
2022-09-06T06:23:43.198Z,13.5
2022-09-06T06:24:53.572Z,13.5
2022-09-06T06:26:03.431Z,13.5
2022-09-06T06:27:13.556Z,13.6
2022-09-06T06:28:23.662Z,13.6
2022-09-06T06:29:33.784Z,13.6
2022-09-06T06:30:43.894Z,13.6
2022-09-06T06:31:54.014Z,13.7
2022-09-06T06:33:04.142Z,13.7
2022-09-06T06:34:14.247Z,13.7
2022-09-06T06:35:24.374Z,13.8
2022-09-06T06:36:34.488Z,13.8
2022-09-06T06:37:43.623Z,13.9
2022-09-06T06:38:53.746Z,13.9
2022-09-06T06:40:03.852Z,14
2022-09-06T06:41:14.233Z,14
2022-09-06T06:42:24.095Z,14
2022-09-06T06:43:34.203Z,14.1
2022-09-06T06:44:44.321Z,14.1
2022-09-06T06:45:54.440Z,14.1
2022-09-06T06:47:04.817Z,14.2
2022-09-06T06:48:14.676Z,14.2
2022-09-06T06:49:24.799Z,14.1
2022-09-06T06:50:35.177Z,14
2022-09-06T06:52:55.153Z,14.1
2022-09-06T06:54:04.545Z,14.1
2022-09-06T06:55:14.397Z,14.1
2022-09-06T06:56:24.000Z,14.1
2022-09-06T06:57:34.647Z,14.1
2022-09-06T06:58:44.757Z,14.2
2022-09-06T06:59:55.139Z,14.2
2022-09-06T07:01:04.990Z,14.2
2022-09-06T07:02:15.099Z,14.2
2022-09-06T07:04:35.333Z,14.2
2022-09-06T07:05:45.711Z,14.2
2022-09-06T07:06:55.574Z,14.1
2022-09-06T07:08:05.694Z,14.2
2022-09-06T07:09:14.832Z,14.2
2022-09-06T07:10:24.936Z,14.3
2022-09-06T07:11:35.066Z,14.3
2022-09-06T07:12:45.173Z,14.3
2022-09-06T07:13:55.297Z,14.3
2022-09-06T07:15:05.407Z,14.4
2022-09-06T07:16:15.539Z,14.4
2022-09-06T07:17:25.659Z,14.3
2022-09-06T07:18:35.764Z,14.4
2022-09-06T07:19:45.888Z,14.4
2022-09-06T07:20:56.007Z,14.4
2022-09-06T07:22:06.120Z,14.3
2022-09-06T07:23:16.249Z,14.3
2022-09-06T07:24:25.366Z,14.4
2022-09-06T07:25:35.492Z,14.4
2022-09-06T07:26:45.604Z,14.4
2022-09-06T07:27:55.724Z,14.4
2022-09-06T07:29:05.839Z,14.3
2022-09-06T07:30:15.951Z,14.3
2022-09-06T07:31:26.076Z,14.3
2022-09-06T07:32:36.186Z,14.4
2022-09-06T07:33:46.311Z,14.5
2022-09-06T07:34:56.433Z,14.7
2022-09-06T07:36:06.540Z,14.9
2022-09-06T07:37:16.671Z,15.1
2022-09-06T07:39:36.892Z,15.3
2022-09-06T07:40:46.028Z,15.3
2022-09-06T07:41:56.155Z,15.4
2022-09-06T07:43:06.276Z,15.4
2022-09-06T07:44:16.383Z,15.5
2022-09-06T07:45:26.513Z,15.5
2022-09-06T07:46:36.875Z,15.5
2022-09-06T07:47:46.731Z,15.6
2022-09-06T07:48:56.852Z,15.7
2022-09-06T07:50:06.968Z,15.8
2022-09-06T07:51:17.095Z,15.7
2022-09-06T07:52:27.213Z,15.5
2022-09-06T07:53:37.332Z,15.4
2022-09-06T07:54:47.445Z,15.3
2022-09-06T07:55:56.580Z,15.2
2022-09-06T07:57:06.700Z,15.2
2022-09-06T07:58:16.815Z,15.2
2022-09-06T07:59:26.923Z,15.2
2022-09-06T08:00:37.049Z,15.2
2022-09-06T08:01:47.171Z,15.2
2022-09-06T08:02:57.292Z,15.3
2022-09-06T08:04:07.395Z,15.3
2022-09-06T08:05:17.523Z,15.3
2022-09-06T08:06:27.638Z,15.4
2022-09-06T08:07:37.745Z,15.4
2022-09-06T08:08:48.125Z,15.6
2022-09-06T08:09:57.981Z,15.6
2022-09-06T08:11:07.118Z,15.6
2022-09-06T08:12:17.247Z,15.7
2022-09-06T08:13:27.365Z,15.9
2022-09-06T08:14:37.468Z,16
2022-09-06T08:15:47.849Z,16
2022-09-06T08:16:57.962Z,16
2022-09-06T08:18:07.830Z,16.1
2022-09-06T08:19:17.941Z,16.1
2022-09-06T08:20:28.066Z,16
2022-09-06T08:21:38.172Z,16.2
2022-09-06T08:22:48.300Z,16.4
2022-09-06T08:23:58.424Z,16.6
2022-09-06T08:25:08.533Z,16.8
2022-09-06T08:26:17.673Z,17
2022-09-06T08:28:37.905Z,16.9
2022-09-06T08:29:48.011Z,16.9
2022-09-06T08:30:58.128Z,17
2022-09-06T08:32:08.249Z,17
2022-09-06T08:33:18.374Z,16.9
2022-09-06T08:34:28.481Z,16.7
2022-09-06T08:35:38.599Z,16.7
2022-09-06T08:36:48.719Z,16.7
2022-09-06T08:37:59.097Z,16.6
2022-09-06T08:39:08.953Z,16.6
2022-09-06T08:40:19.072Z,16.5
2022-09-06T08:41:28.219Z,16.6
2022-09-06T08:42:38.331Z,16.6
2022-09-06T08:43:48.441Z,16.8
2022-09-06T08:44:58.556Z,17
2022-09-06T08:46:08.683Z,17.3
2022-09-06T08:47:18.789Z,17.6
2022-09-06T08:48:28.914Z,17.8
2022-09-06T08:49:39.036Z,18.1
2022-09-06T08:50:49.143Z,18.1
2022-09-06T08:51:59.270Z,18.4
2022-09-06T08:53:09.377Z,18.5
2022-09-06T08:54:19.776Z,18.2
2022-09-06T08:55:29.617Z,18
2022-09-06T08:56:38.751Z,18.1
2022-09-06T08:57:48.868Z,18
2022-09-06T08:58:58.984Z,17.9
2022-09-06T09:00:09.110Z,17.8
2022-09-06T09:01:19.222Z,17.8
2022-09-06T09:02:29.347Z,17.9
2022-09-06T09:03:39.459Z,18.2
2022-09-06T09:04:49.569Z,18.3
2022-09-06T09:05:59.000Z,18.6
2022-09-06T09:07:09.811Z,18.7
2022-09-06T09:08:19.926Z,18.7
2022-09-06T09:09:30.038Z,18.8
2022-09-06T09:10:40.171Z,19
2022-09-06T09:11:49.292Z,18.9
2022-09-06T09:12:59.418Z,18.8
2022-09-06T09:17:39.881Z,18.8
2022-09-06T09:18:49.026Z,18.7
2022-09-06T09:19:58.420Z,18.6
2022-09-06T09:21:08.273Z,18.8
2022-09-06T09:22:18.386Z,19
2022-09-06T09:23:28.500Z,19.2
2022-09-06T09:24:38.891Z,19.2
2022-09-06T09:25:48.737Z,19.2
2022-09-06T09:26:58.869Z,19.2
2022-09-06T09:28:08.980Z,19.3
2022-09-06T09:29:19.090Z,19.4
2022-09-06T09:30:29.206Z,19.5
2022-09-06T09:31:38.623Z,19.6
2022-09-06T09:32:47.490Z,19.8
2022-09-06T09:33:57.878Z,19.9
2022-09-06T09:35:07.730Z,19.9
2022-09-06T09:36:17.845Z,19.5
2022-09-06T09:37:27.974Z,19.3
2022-09-06T09:38:38.078Z,19.4
2022-09-06T09:39:48.193Z,19.3
2022-09-06T09:40:58.599Z,19.5
2022-09-06T09:42:08.436Z,19.3
2022-09-06T09:43:18.546Z,19.2
2022-09-06T09:44:28.678Z,19.3
2022-09-06T09:45:38.790Z,19.4
2022-09-06T09:46:47.933Z,19.5
2022-09-06T09:47:58.046Z,19.6
2022-09-06T09:49:08.159Z,19.8
2022-09-06T09:50:18.291Z,19.7
2022-09-06T09:51:28.401Z,19.7
2022-09-06T09:52:38.516Z,19.8
2022-09-06T09:53:48.640Z,19.9
2022-09-06T09:54:58.753Z,20.1
2022-09-06T09:56:08.862Z,20.2
2022-09-06T09:57:18.997Z,20.2
2022-09-06T09:58:29.110Z,20.4
2022-09-06T09:59:39.221Z,20.4
2022-09-06T10:00:49.335Z,20.3
2022-09-06T10:01:58.485Z,20.4
2022-09-06T10:03:08.859Z,20.6
2022-09-06T10:04:18.705Z,20.7
2022-09-06T10:05:28.821Z,20.6
2022-09-06T10:06:38.953Z,20.5
2022-09-06T10:07:49.062Z,20.4
2022-09-06T10:08:59.193Z,20.4
2022-09-06T10:10:09.299Z,20.4
2022-09-06T10:11:19.425Z,20.4
2022-09-06T10:12:29.535Z,20.4
2022-09-06T10:13:39.664Z,20.6
2022-09-06T10:14:49.776Z,20.6
2022-09-06T10:15:59.890Z,20.6
2022-09-06T10:17:09.019Z,20.6
2022-09-06T10:18:19.134Z,20.6
2022-09-06T10:19:29.269Z,20.6
2022-09-06T10:20:39.375Z,20.8
2022-09-06T10:21:49.503Z,20.9
2022-09-06T10:22:59.608Z,21
2022-09-06T10:24:09.729Z,21
2022-09-06T10:25:20.116Z,20.9
2022-09-06T10:26:29.972Z,21.1
2022-09-06T10:27:40.083Z,21.2
2022-09-06T10:28:50.199Z,21.2
2022-09-06T10:30:00.312Z,21.1
2022-09-06T10:31:10.700Z,21.2
2022-09-06T10:32:19.561Z,21.3
2022-09-06T10:33:29.689Z,21.4
2022-09-06T10:34:39.811Z,21.4
2022-09-06T10:35:49.919Z,21.4
2022-09-06T10:38:10.162Z,21.4
2022-09-06T10:39:20.556Z,21.4
2022-09-06T10:41:40.769Z,21.6
2022-09-06T10:42:50.893Z,21.7
2022-09-06T10:44:01.005Z,21.9
2022-09-06T10:45:10.862Z,22
2022-09-06T10:46:20.974Z,21.8
2022-09-06T10:48:40.234Z,22
2022-09-06T10:49:49.380Z,22.1
2022-09-06T10:50:58.507Z,22.3
2022-09-06T10:52:08.619Z,22.4
2022-09-06T10:53:19.008Z,22.3
2022-09-06T10:54:28.852Z,22.4
2022-09-06T10:55:38.984Z,22.5
2022-09-06T10:56:49.090Z,22.3
2022-09-06T10:57:59.208Z,22.3
2022-09-06T10:59:09.325Z,22.3
2022-09-06T11:00:19.453Z,22.3
2022-09-06T11:01:29.561Z,22.5
2022-09-06T11:02:38.699Z,22.4
2022-09-06T11:03:47.000Z,22.4
2022-09-06T11:04:57.957Z,22.4
2022-09-06T11:06:08.086Z,22.5
2022-09-06T11:07:18.195Z,22.5
2022-09-06T11:08:28.306Z,22.4
2022-09-06T11:09:38.430Z,22.3
2022-09-06T11:10:48.554Z,22.2
2022-09-06T11:11:58.663Z,22.2
2022-09-06T11:13:08.788Z,22.1
2022-09-06T11:14:18.902Z,21.9
2022-09-06T11:15:29.017Z,21.9
2022-09-06T11:16:39.126Z,21.9
2022-09-06T11:17:49.243Z,21.6
2022-09-06T11:18:58.390Z,21.5
2022-09-06T11:20:08.503Z,21.4
2022-09-06T11:21:18.613Z,21.3
2022-09-06T11:23:38.848Z,21.3
2022-09-06T11:24:48.974Z,21.5
2022-09-06T11:25:59.087Z,21.7
2022-09-06T11:27:09.203Z,21.6
2022-09-06T11:28:19.314Z,21.7
2022-09-06T11:29:29.445Z,21.6
2022-09-06T11:30:39.554Z,21.6
2022-09-06T11:31:49.668Z,21.6
2022-09-06T11:32:59.799Z,21.6
2022-09-06T11:34:08.923Z,21.5
2022-09-06T11:35:19.033Z,21.4
2022-09-06T11:36:29.158Z,21.4
2022-09-06T11:37:39.270Z,21.5
2022-09-06T11:38:49.398Z,21.5
2022-09-06T11:39:59.783Z,21.5
2022-09-06T11:41:09.629Z,21.5
2022-09-06T11:42:19.740Z,21.6
2022-09-06T11:43:29.853Z,21.6
2022-09-06T11:44:39.982Z,21.6
2022-09-06T11:45:50.096Z,21.5
2022-09-06T11:47:00.210Z,21.5
2022-09-06T11:48:10.322Z,21.6
2022-09-06T11:49:19.458Z,21.6
2022-09-06T11:50:29.582Z,21.7
2022-09-06T11:51:39.695Z,21.8
2022-09-06T11:52:49.819Z,21.9
2022-09-06T11:53:59.943Z,21.9
2022-09-06T11:55:10.311Z,21.9
2022-09-06T11:56:20.165Z,21.9
2022-09-06T11:57:30.290Z,21.8
2022-09-06T11:58:40.398Z,21.7
2022-09-06T11:59:50.531Z,21.6
2022-09-06T12:01:00.650Z,21.5
2022-09-06T12:02:10.756Z,21.5
2022-09-06T12:03:20.884Z,21.4
2022-09-06T12:04:30.000Z,21.5
2022-09-06T12:05:40.382Z,21.5
2022-09-06T12:06:50.245Z,21.6
2022-09-06T12:08:00.368Z,21.5
2022-09-06T12:09:10.479Z,21.6
2022-09-06T12:10:20.604Z,21.7
2022-09-06T12:11:30.718Z,21.7
2022-09-06T12:12:40.823Z,21.7
2022-09-06T12:13:50.953Z,21.7
2022-09-06T12:15:01.058Z,21.6
2022-09-06T12:16:11.185Z,21.6
2022-09-06T12:17:21.299Z,21.5
2022-09-06T12:18:31.417Z,21.6
2022-09-06T12:19:40.558Z,21.4
2022-09-06T12:22:00.795Z,21.5
2022-09-06T12:23:10.901Z,21.7
2022-09-06T12:24:21.022Z,21.7
2022-09-06T12:25:31.138Z,21.7
2022-09-06T12:26:41.249Z,21.7
2022-09-06T12:27:51.365Z,21.6
2022-09-06T12:29:01.484Z,21.6
2022-09-06T12:30:11.617Z,21.4
2022-09-06T12:31:21.723Z,21.3
2022-09-06T12:32:31.836Z,21.2
2022-09-06T12:33:41.965Z,21.3
2022-09-06T12:34:51.089Z,21.3
2022-09-06T12:36:01.478Z,21.3
2022-09-06T12:37:11.333Z,21.4
2022-09-06T12:38:21.444Z,21.4
2022-09-06T12:40:41.672Z,21.5
2022-09-06T12:41:51.801Z,21.4
2022-09-06T12:43:01.914Z,21.3
2022-09-06T12:44:12.025Z,21.3
2022-09-06T12:45:22.159Z,21.2
2022-09-06T12:46:32.275Z,21.2
2022-09-06T12:47:42.382Z,21.2
2022-09-06T12:48:52.509Z,21.3
2022-09-06T12:50:01.628Z,21.3
2022-09-06T12:51:11.754Z,21.3
2022-09-06T12:52:21.873Z,21.2
2022-09-06T12:53:31.986Z,21.2
2022-09-06T12:54:42.108Z,21
2022-09-06T12:57:02.348Z,21
2022-09-06T12:58:12.455Z,21.1
2022-09-06T12:59:22.571Z,21.1
2022-09-06T13:00:32.683Z,21.1
2022-09-06T13:01:42.814Z,21.2
2022-09-06T13:02:52.925Z,21.3
2022-09-06T13:04:03.035Z,21.4
2022-09-06T13:05:12.182Z,21.4
2022-09-06T13:06:22.294Z,21.6
2022-09-06T13:07:32.407Z,21.8
2022-09-06T13:08:42.539Z,21.9
2022-09-06T13:09:52.647Z,22
2022-09-06T13:11:03.032Z,22.1
2022-09-06T13:12:12.886Z,22.2
2022-09-06T13:13:22.992Z,22.3
2022-09-06T13:14:33.122Z,22.4
2022-09-06T13:15:43.235Z,22.4
2022-09-06T13:16:53.355Z,22.5
2022-09-06T13:18:03.470Z,22.7
2022-09-06T13:19:13.583Z,22.8
2022-09-06T13:20:22.727Z,22.6
2022-09-06T13:22:42.000Z,22.4
2022-09-06T13:23:53.074Z,22.6
2022-09-06T13:25:03.190Z,22.7
2022-09-06T13:26:13.303Z,22.6
2022-09-06T13:27:23.416Z,22.4
2022-09-06T13:29:43.659Z,22.2
2022-09-06T13:30:54.042Z,22.2
2022-09-06T13:32:03.892Z,22.1
2022-09-06T13:33:14.004Z,22.1
2022-09-06T13:34:24.131Z,22.2
2022-09-06T13:35:33.256Z,22.2
2022-09-06T13:36:43.644Z,22.3
2022-09-06T13:37:53.495Z,22.4
2022-09-06T13:39:03.609Z,22.3
2022-09-06T13:40:13.722Z,22.2
2022-09-06T13:41:22.875Z,22.2
2022-09-06T13:42:32.988Z,22
2022-09-06T13:43:43.101Z,21.9
2022-09-06T13:44:53.216Z,21.9
2022-09-06T13:46:03.345Z,22.1
2022-09-06T13:47:13.452Z,22
2022-09-06T13:48:23.568Z,21.8
2022-09-06T13:49:33.694Z,21.7
2022-09-06T13:50:43.806Z,21.7
2022-09-06T13:51:53.937Z,21.6
2022-09-06T13:53:04.307Z,21.7
2022-09-06T13:54:14.160Z,21.6
2022-09-06T13:55:24.271Z,21.5
2022-09-06T13:56:33.173Z,21.4
2022-09-06T14:00:03.760Z,21.2
2022-09-06T14:01:13.891Z,21.1
2022-09-06T14:02:24.002Z,21
2022-09-06T14:03:34.111Z,21
2022-09-06T14:04:44.243Z,21
2022-09-06T14:05:54.114Z,20.9
2022-09-06T14:07:04.466Z,20.9
2022-09-06T14:08:14.596Z,20.9
2022-09-06T14:09:24.967Z,21
2022-09-06T14:10:34.823Z,20.9
2022-09-06T14:11:43.947Z,20.8
2022-09-06T14:12:54.068Z,20.7
2022-09-06T14:14:04.200Z,20.7
2022-09-06T14:15:14.311Z,20.8
2022-09-06T14:16:24.687Z,20.8
2022-09-06T14:18:44.664Z,20.8
2022-09-06T14:19:53.804Z,20.8
2022-09-06T14:21:02.929Z,20.8
2022-09-06T14:22:13.062Z,20.9
2022-09-06T14:23:23.176Z,20.9
2022-09-06T14:24:33.289Z,20.9
2022-09-06T14:25:43.404Z,21.1
2022-09-06T14:26:53.292Z,21.2
2022-09-06T14:28:03.651Z,21.2
2022-09-06T14:29:13.511Z,21.4
2022-09-06T14:30:23.882Z,21.6
2022-09-06T14:31:33.997Z,21.8
2022-09-06T14:32:42.900Z,21.9
2022-09-06T14:33:52.275Z,22.2
2022-09-06T14:35:02.146Z,22.2
2022-09-06T14:36:12.256Z,22.5
2022-09-06T14:37:22.388Z,22.7
2022-09-06T14:38:32.499Z,22.9
2022-09-06T14:39:42.858Z,23.2
2022-09-06T14:40:52.735Z,23.7
2022-09-06T14:42:02.862Z,24.3
2022-09-06T14:43:13.217Z,24.5
2022-09-06T14:44:23.324Z,24.8
2022-09-06T14:45:33.437Z,24.4
2022-09-06T14:46:43.324Z,24.8
2022-09-06T14:47:53.436Z,25.3
2022-09-06T14:49:02.822Z,25.7
2022-09-06T14:50:12.697Z,26
2022-09-06T14:51:23.049Z,25.9
2022-09-06T14:52:32.917Z,25.9
2022-09-06T14:53:43.549Z,25.8
2022-09-06T14:54:53.402Z,25.2
2022-09-06T14:56:03.512Z,24.7
2022-09-06T14:57:13.397Z,24.5
2022-09-06T14:58:23.511Z,24.4
2022-09-06T14:59:33.879Z,24.6
2022-09-06T15:00:43.750Z,24.5
2022-09-06T15:01:53.858Z,24.8
2022-09-06T15:03:04.225Z,24.5
2022-09-06T15:04:13.361Z,24.3
2022-09-06T15:05:23.466Z,24.3
2022-09-06T15:06:33.593Z,24.2
2022-09-06T15:07:43.469Z,24.2
2022-09-06T15:08:53.832Z,24.2
2022-09-06T15:10:03.943Z,24
2022-09-06T15:11:13.818Z,23.7
2022-09-06T15:12:24.175Z,23.1
2022-09-06T15:13:34.305Z,22.3
2022-09-06T15:14:44.410Z,21.6
2022-09-06T15:15:54.540Z,21.2
2022-09-06T15:18:14.763Z,20.7
2022-09-06T15:19:24.163Z,20.6
2022-09-06T15:20:34.009Z,20.8
2022-09-06T15:21:43.882Z,20.9
2022-09-06T15:22:54.009Z,21
2022-09-06T15:24:04.374Z,21
2022-09-06T15:25:14.241Z,21.1
2022-09-06T15:26:24.367Z,21.1
2022-09-06T15:27:34.724Z,21
2022-09-06T15:28:44.604Z,20.8
2022-09-06T15:29:54.953Z,20.6
2022-09-06T15:31:05.065Z,20.5
2022-09-06T15:32:15.189Z,20.5
2022-09-06T15:33:25.319Z,20.6
2022-09-06T15:35:44.563Z,20.6
2022-09-06T15:36:54.427Z,20.6
2022-09-06T15:38:04.804Z,20.6
2022-09-06T15:39:14.923Z,20.6
2022-09-06T15:40:25.026Z,20.6
2022-09-06T15:42:45.261Z,20.5
2022-09-06T15:43:55.380Z,20.6
2022-09-06T15:45:05.513Z,20.6
2022-09-06T15:46:15.617Z,20.6
2022-09-06T15:47:25.745Z,20.7
2022-09-06T15:48:35.854Z,20.7
2022-09-06T15:49:44.991Z,20.8
2022-09-06T15:50:55.112Z,21
2022-09-06T15:52:05.491Z,21.1
2022-09-06T15:53:15.339Z,21.2
2022-09-06T15:54:25.225Z,21
2022-09-06T15:55:35.576Z,20.8
2022-09-06T15:56:45.687Z,20.6
2022-09-06T15:57:55.806Z,20.6
2022-09-06T15:59:05.933Z,20.5
2022-09-06T16:01:26.158Z,20.4
2022-09-06T16:02:36.285Z,20.3
2022-09-06T16:03:46.155Z,20.4
2022-09-06T16:04:55.525Z,20.4
2022-09-06T16:06:05.652Z,20.4
2022-09-06T16:07:15.760Z,20.4
2022-09-06T16:08:25.650Z,20.3
2022-09-06T16:09:35.759Z,20.2
2022-09-06T16:10:46.116Z,20.1
2022-09-06T16:11:56.000Z,20.2
2022-09-06T16:13:06.352Z,20.3
2022-09-06T16:14:16.464Z,20.3
2022-09-06T16:15:26.590Z,20.2
2022-09-06T16:17:46.576Z,20.5
2022-09-06T16:18:56.703Z,21
2022-09-06T16:20:06.077Z,21.8
2022-09-06T16:21:16.200Z,22.2
2022-09-06T16:22:26.303Z,22.1
2022-09-06T16:23:36.422Z,21.8
2022-09-06T16:24:46.545Z,21.3